TVF0227 LFBD-LFML
Flight info
| Callsign | TVF0227 |
|---|---|
| Flight time | 0h 49m |
| Altitude | 33000 |
| Route | OBLOC DCT SECHE DCT SOVET DCT FJR |
| Aircraft | A21N/M-SDE2E3FGHIRWXY/LB1 |
Departure
| Time | 2026-05-06 19:31 |
|---|---|
| Airport | Bordeaux–Mérignac Airport (LFBD) |
Arrival
| Time | 2026-05-06 20:20 |
|---|---|
| Airport | Marseille Provence Airport (LFML) |
| Time | Latitude | Longitude | Altitude | Speed | Heading |
|---|---|---|---|---|---|
| 2026-05-06 19:00 | 44.82961 | -0.70251 | 163 ft | 0 kts | 31° |
| 2026-05-06 19:22 | 44.82951 | -0.70260 | 162 ft | 2 kts | 31° |
| 2026-05-06 19:22 | 44.82938 | -0.70271 | 162 ft | 2 kts | 31° |
| 2026-05-06 19:23 | 44.82925 | -0.70282 | 162 ft | 2 kts | 31° |
| 2026-05-06 19:23 | 44.82913 | -0.70293 | 161 ft | 2 kts | 31° |
| 2026-05-06 19:23 | 44.82901 | -0.70303 | 161 ft | 2 kts | 31° |
| 2026-05-06 19:23 | 44.82887 | -0.70316 | 160 ft | 2 kts | 52° |
| 2026-05-06 19:24 | 44.82880 | -0.70339 | 159 ft | 2 kts | 84° |
| 2026-05-06 19:24 | 44.82881 | -0.70355 | 159 ft | 1 kts | 105° |
| 2026-05-06 19:24 | 44.82883 | -0.70364 | 159 ft | 0 kts | 107° |
| 2026-05-06 19:27 | 44.82883 | -0.70362 | 159 ft | 0 kts | 106° |
| 2026-05-06 19:27 | 44.82881 | -0.70356 | 159 ft | 1 kts | 106° |
| 2026-05-06 19:27 | 44.82874 | -0.70318 | 160 ft | 7 kts | 106° |
| 2026-05-06 19:28 | 44.82856 | -0.70232 | 163 ft | 11 kts | 106° |
| 2026-05-06 19:28 | 44.82813 | -0.70176 | 166 ft | 10 kts | 178° |
| 2026-05-06 19:28 | 44.82770 | -0.70121 | 167 ft | 10 kts | 107° |
| 2026-05-06 19:28 | 44.82751 | -0.70036 | 169 ft | 11 kts | 107° |
| 2026-05-06 19:29 | 44.82717 | -0.69948 | 170 ft | 12 kts | 153° |
| 2026-05-06 19:29 | 44.82639 | -0.69962 | 170 ft | 13 kts | 198° |
| 2026-05-06 19:29 | 44.82556 | -0.70015 | 169 ft | 13 kts | 241° |
| 2026-05-06 19:29 | 44.82569 | -0.70129 | 167 ft | 6 kts | 286° |
| 2026-05-06 19:30 | 44.82592 | -0.70242 | 163 ft | 35 kts | 287° |
| 2026-05-06 19:30 | 44.82726 | -0.70870 | 164 ft | 105 kts | 286° |
| 2026-05-06 19:30 | 44.82971 | -0.72042 | 166 ft | 160 kts | 288° |
| 2026-05-06 19:30 | 44.83243 | -0.73499 | 703 ft | 165 kts | 280° |
| 2026-05-06 19:31 | 44.82995 | -0.74991 | 1307 ft | 179 kts | 234° |
| 2026-05-06 19:31 | 44.82051 | -0.75901 | 1960 ft | 188 kts | 201° |
| 2026-05-06 19:31 | 44.79310 | -0.75567 | 2911 ft | 219 kts | 166° |
| 2026-05-06 19:32 | 44.77939 | -0.75079 | 3239 ft | 239 kts | 166° |
| 2026-05-06 19:32 | 44.76449 | -0.74581 | 3674 ft | 255 kts | 167° |
| 2026-05-06 19:32 | 44.74840 | -0.74088 | 4135 ft | 271 kts | 168° |
| 2026-05-06 19:32 | 44.72946 | -0.73543 | 4793 ft | 283 kts | 169° |
| 2026-05-06 19:33 | 44.71243 | -0.72776 | 5557 ft | 286 kts | 148° |
| 2026-05-06 19:33 | 44.69971 | -0.71101 | 6318 ft | 285 kts | 120° |
| 2026-05-06 19:33 | 44.69356 | -0.68760 | 7072 ft | 282 kts | 94° |
| 2026-05-06 19:33 | 44.69273 | -0.66226 | 7815 ft | 284 kts | 91° |
| 2026-05-06 19:34 | 44.68914 | -0.63718 | 8515 ft | 292 kts | 105° |
| 2026-05-06 19:34 | 44.68280 | -0.61137 | 9250 ft | 296 kts | 108° |
| 2026-05-06 19:34 | 44.67616 | -0.58540 | 9995 ft | 300 kts | 107° |
| 2026-05-06 19:34 | 44.66938 | -0.55747 | 10669 ft | 308 kts | 106° |
| 2026-05-06 19:35 | 44.66303 | -0.52977 | 11034 ft | 324 kts | 105° |
| 2026-05-06 19:35 | 44.65678 | -0.50139 | 11352 ft | 340 kts | 105° |
| 2026-05-06 19:35 | 44.65039 | -0.47164 | 11645 ft | 356 kts | 105° |
| 2026-05-06 19:35 | 44.64325 | -0.43800 | 11954 ft | 373 kts | 105° |
| 2026-05-06 19:36 | 44.63622 | -0.40467 | 12448 ft | 381 kts | 105° |
| 2026-05-06 19:36 | 44.62910 | -0.37090 | 13144 ft | 384 kts | 105° |
| 2026-05-06 19:36 | 44.62174 | -0.33602 | 13844 ft | 386 kts | 106° |
| 2026-05-06 19:36 | 44.61401 | -0.30045 | 14519 ft | 389 kts | 106° |
| 2026-05-06 19:37 | 44.60597 | -0.26393 | 15162 ft | 393 kts | 106° |
| 2026-05-06 19:37 | 44.59793 | -0.22753 | 15790 ft | 396 kts | 106° |
| 2026-05-06 19:37 | 44.59018 | -0.19248 | 16356 ft | 400 kts | 106° |
| 2026-05-06 19:37 | 44.58488 | -0.16848 | 16743 ft | 403 kts | 106° |
| 2026-05-06 19:38 | 44.57413 | -0.11989 | 17526 ft | 407 kts | 106° |
| 2026-05-06 19:38 | 44.56631 | -0.08463 | 18059 ft | 410 kts | 106° |
| 2026-05-06 19:38 | 44.55824 | -0.04829 | 18587 ft | 414 kts | 106° |
| 2026-05-06 19:38 | 44.54999 | -0.01123 | 19121 ft | 417 kts | 105° |
| 2026-05-06 19:39 | 44.54155 | 0.02665 | 19632 ft | 421 kts | 105° |
| 2026-05-06 19:39 | 44.53297 | 0.06511 | 20143 ft | 424 kts | 105° |
| 2026-05-06 19:39 | 44.52474 | 0.10191 | 20622 ft | 428 kts | 105° |
| 2026-05-06 19:39 | 44.51643 | 0.13904 | 21085 ft | 431 kts | 105° |
| 2026-05-06 19:40 | 44.50817 | 0.17589 | 21534 ft | 434 kts | 105° |
| 2026-05-06 19:40 | 44.49953 | 0.21435 | 21999 ft | 437 kts | 105° |
| 2026-05-06 19:40 | 44.49104 | 0.25204 | 22433 ft | 440 kts | 105° |
| 2026-05-06 19:40 | 44.48267 | 0.28915 | 22857 ft | 443 kts | 105° |
| 2026-05-06 19:41 | 44.47411 | 0.32705 | 23274 ft | 446 kts | 105° |
| 2026-05-06 19:41 | 44.46532 | 0.36593 | 23685 ft | 449 kts | 105° |
| 2026-05-06 19:41 | 44.45707 | 0.40228 | 24058 ft | 451 kts | 105° |
| 2026-05-06 19:41 | 44.44825 | 0.44114 | 24438 ft | 454 kts | 105° |
| 2026-05-06 19:42 | 44.43949 | 0.47971 | 24797 ft | 457 kts | 105° |
| 2026-05-06 19:42 | 44.43003 | 0.52124 | 25188 ft | 460 kts | 105° |
| 2026-05-06 19:42 | 44.42055 | 0.56280 | 25576 ft | 462 kts | 105° |
| 2026-05-06 19:42 | 44.41069 | 0.60589 | 25951 ft | 464 kts | 105° |
| 2026-05-06 19:43 | 44.40065 | 0.64974 | 26287 ft | 467 kts | 105° |
| 2026-05-06 19:43 | 44.39036 | 0.69450 | 26643 ft | 470 kts | 105° |
| 2026-05-06 19:43 | 44.38007 | 0.73920 | 27059 ft | 470 kts | 105° |
| 2026-05-06 19:43 | 44.37078 | 0.77947 | 27492 ft | 469 kts | 106° |
| 2026-05-06 19:44 | 44.36138 | 0.82009 | 27910 ft | 468 kts | 105° |
| 2026-05-06 19:44 | 44.35170 | 0.86186 | 28322 ft | 468 kts | 105° |
| 2026-05-06 19:44 | 44.34212 | 0.90316 | 28721 ft | 467 kts | 105° |
| 2026-05-06 19:44 | 44.33243 | 0.94486 | 29124 ft | 467 kts | 105° |
| 2026-05-06 19:45 | 44.32271 | 0.98659 | 29503 ft | 466 kts | 105° |
| 2026-05-06 19:45 | 44.31273 | 1.02942 | 29896 ft | 466 kts | 105° |
| 2026-05-06 19:45 | 44.30257 | 1.07287 | 30273 ft | 465 kts | 105° |
| 2026-05-06 19:45 | 44.29266 | 1.11524 | 30650 ft | 465 kts | 105° |
| 2026-05-06 19:46 | 44.28263 | 1.15797 | 31002 ft | 464 kts | 106° |
| 2026-05-06 19:46 | 44.27249 | 1.20119 | 31283 ft | 464 kts | 106° |
| 2026-05-06 19:46 | 44.26214 | 1.24520 | 31534 ft | 466 kts | 106° |
| 2026-05-06 19:46 | 44.25199 | 1.28821 | 31737 ft | 467 kts | 107° |
| 2026-05-06 19:47 | 44.24192 | 1.33083 | 31938 ft | 469 kts | 107° |
| 2026-05-06 19:47 | 44.23148 | 1.37488 | 32130 ft | 470 kts | 107° |
| 2026-05-06 19:47 | 44.22124 | 1.41809 | 32326 ft | 472 kts | 107° |
| 2026-05-06 19:47 | 44.21083 | 1.46185 | 32530 ft | 473 kts | 107° |
| 2026-05-06 19:48 | 44.20058 | 1.50486 | 32717 ft | 473 kts | 107° |
| 2026-05-06 19:48 | 44.19004 | 1.54899 | 32879 ft | 475 kts | 108° |
| 2026-05-06 19:48 | 44.16950 | 1.63468 | 32930 ft | 477 kts | 108° |
| 2026-05-06 19:49 | 44.14866 | 1.72136 | 32934 ft | 478 kts | 109° |
| 2026-05-06 19:49 | 44.12769 | 1.80825 | 32922 ft | 478 kts | 109° |
| 2026-05-06 19:50 | 44.10669 | 1.89494 | 32939 ft | 479 kts | 109° |
| 2026-05-06 19:50 | 44.08534 | 1.98270 | 32933 ft | 479 kts | 109° |
| 2026-05-06 19:51 | 44.06390 | 2.07048 | 32940 ft | 478 kts | 109° |
| 2026-05-06 19:51 | 44.04174 | 2.16099 | 32944 ft | 479 kts | 109° |
| 2026-05-06 19:52 | 44.01956 | 2.25120 | 32936 ft | 480 kts | 110° |
| 2026-05-06 19:52 | 43.99734 | 2.34108 | 32954 ft | 481 kts | 110° |
| 2026-05-06 19:53 | 43.97534 | 2.42980 | 32940 ft | 481 kts | 110° |
| 2026-05-06 19:53 | 43.95300 | 2.51952 | 32948 ft | 482 kts | 110° |
| 2026-05-06 19:54 | 43.93064 | 2.60897 | 32953 ft | 482 kts | 110° |
| 2026-05-06 19:54 | 43.90822 | 2.69841 | 32954 ft | 483 kts | 111° |
| 2026-05-06 19:55 | 43.88565 | 2.78800 | 32963 ft | 483 kts | 111° |
| 2026-05-06 19:55 | 43.87465 | 2.83154 | 32751 ft | 483 kts | 111° |
| 2026-05-06 19:55 | 43.86359 | 2.87524 | 32522 ft | 480 kts | 111° |
| 2026-05-06 19:56 | 43.85254 | 2.91883 | 32294 ft | 478 kts | 111° |
| 2026-05-06 19:56 | 43.84173 | 2.96139 | 32072 ft | 475 kts | 111° |
| 2026-05-06 19:56 | 43.83094 | 3.00379 | 31841 ft | 473 kts | 111° |
| 2026-05-06 19:56 | 43.82004 | 3.04651 | 31542 ft | 473 kts | 111° |
| 2026-05-06 19:57 | 43.80908 | 3.08941 | 31060 ft | 474 kts | 111° |
| 2026-05-06 19:57 | 43.79809 | 3.13232 | 30413 ft | 476 kts | 111° |
| 2026-05-06 19:57 | 43.78730 | 3.17436 | 29689 ft | 478 kts | 111° |
| 2026-05-06 19:57 | 43.77615 | 3.21784 | 28921 ft | 480 kts | 111° |
| 2026-05-06 19:58 | 43.76559 | 3.25885 | 28201 ft | 482 kts | 111° |
| 2026-05-06 19:58 | 43.75503 | 3.29984 | 27471 ft | 483 kts | 111° |
| 2026-05-06 19:58 | 43.74485 | 3.33930 | 26757 ft | 484 kts | 111° |
| 2026-05-06 19:58 | 43.73488 | 3.37785 | 26095 ft | 483 kts | 111° |
| 2026-05-06 19:59 | 43.72423 | 3.41900 | 25631 ft | 476 kts | 111° |
| 2026-05-06 19:59 | 43.71378 | 3.45933 | 25154 ft | 471 kts | 110° |
| 2026-05-06 19:59 | 43.70414 | 3.49642 | 24697 ft | 466 kts | 111° |
| 2026-05-06 19:59 | 43.69359 | 3.53696 | 24197 ft | 461 kts | 110° |
| 2026-05-06 20:00 | 43.68397 | 3.57386 | 23711 ft | 457 kts | 110° |
| 2026-05-06 20:00 | 43.67463 | 3.60967 | 23238 ft | 453 kts | 110° |
| 2026-05-06 20:00 | 43.66371 | 3.65145 | 22711 ft | 448 kts | 111° |
| 2026-05-06 20:00 | 43.65334 | 3.69100 | 22200 ft | 444 kts | 111° |
| 2026-05-06 20:01 | 43.64324 | 3.72950 | 21689 ft | 440 kts | 111° |
| 2026-05-06 20:01 | 43.63308 | 3.76810 | 21180 ft | 436 kts | 111° |
| 2026-05-06 20:01 | 43.62262 | 3.80779 | 20660 ft | 432 kts | 111° |
| 2026-05-06 20:01 | 43.61245 | 3.84630 | 20143 ft | 428 kts | 111° |
| 2026-05-06 20:02 | 43.60238 | 3.88438 | 19952 ft | 426 kts | 111° |
| 2026-05-06 20:02 | 43.59248 | 3.92175 | 19939 ft | 427 kts | 111° |
| 2026-05-06 20:02 | 43.58196 | 3.95997 | 19946 ft | 427 kts | 114° |
| 2026-05-06 20:02 | 43.56976 | 3.99750 | 19918 ft | 425 kts | 117° |
| 2026-05-06 20:03 | 43.55632 | 4.03345 | 19332 ft | 418 kts | 119° |
| 2026-05-06 20:03 | 43.54279 | 4.06842 | 18004 ft | 420 kts | 120° |
| 2026-05-06 20:03 | 43.52906 | 4.10363 | 16593 ft | 421 kts | 120° |
| 2026-05-06 20:03 | 43.51586 | 4.13751 | 15850 ft | 404 kts | 119° |
| 2026-05-06 20:04 | 43.50308 | 4.17045 | 15494 ft | 397 kts | 119° |
| 2026-05-06 20:04 | 43.49020 | 4.20364 | 15032 ft | 394 kts | 119° |
| 2026-05-06 20:04 | 43.47702 | 4.23757 | 14530 ft | 391 kts | 119° |
| 2026-05-06 20:04 | 43.46426 | 4.27039 | 14033 ft | 389 kts | 119° |
| 2026-05-06 20:05 | 43.45141 | 4.30341 | 13525 ft | 386 kts | 119° |
| 2026-05-06 20:05 | 43.43892 | 4.33550 | 13042 ft | 383 kts | 119° |
| 2026-05-06 20:05 | 43.42671 | 4.36686 | 12556 ft | 380 kts | 119° |
| 2026-05-06 20:05 | 43.41432 | 4.39864 | 12065 ft | 378 kts | 119° |
| 2026-05-06 20:06 | 43.40190 | 4.43046 | 11576 ft | 375 kts | 119° |
| 2026-05-06 20:06 | 43.39013 | 4.46056 | 11102 ft | 373 kts | 118° |
| 2026-05-06 20:06 | 43.37774 | 4.49215 | 10761 ft | 369 kts | 119° |
| 2026-05-06 20:06 | 43.36549 | 4.52303 | 10778 ft | 372 kts | 119° |
| 2026-05-06 20:07 | 43.35291 | 4.55467 | 10662 ft | 372 kts | 119° |
| 2026-05-06 20:07 | 43.34065 | 4.58544 | 10399 ft | 361 kts | 119° |
| 2026-05-06 20:07 | 43.32834 | 4.61631 | 10135 ft | 351 kts | 119° |
| 2026-05-06 20:07 | 43.31678 | 4.64531 | 9890 ft | 342 kts | 119° |
| 2026-05-06 20:08 | 43.30523 | 4.67426 | 9628 ft | 332 kts | 120° |
| 2026-05-06 20:08 | 43.29420 | 4.70156 | 9364 ft | 324 kts | 122° |
| 2026-05-06 20:08 | 43.28049 | 4.72572 | 9106 ft | 314 kts | 136° |
| 2026-05-06 20:08 | 43.26341 | 4.74415 | 8848 ft | 305 kts | 150° |
| 2026-05-06 20:09 | 43.24487 | 4.75748 | 8599 ft | 297 kts | 156° |
| 2026-05-06 20:09 | 43.22691 | 4.77132 | 8329 ft | 291 kts | 141° |
| 2026-05-06 20:09 | 43.21480 | 4.79209 | 8078 ft | 289 kts | 115° |
| 2026-05-06 20:09 | 43.20991 | 4.81824 | 7975 ft | 289 kts | 96° |
| 2026-05-06 20:10 | 43.20810 | 4.84499 | 7966 ft | 290 kts | 93° |
| 2026-05-06 20:10 | 43.20674 | 4.87239 | 7963 ft | 290 kts | 92° |
| 2026-05-06 20:10 | 43.20544 | 4.90100 | 7958 ft | 290 kts | 92° |
| 2026-05-06 20:10 | 43.20419 | 4.92847 | 7959 ft | 290 kts | 92° |
| 2026-05-06 20:11 | 43.20291 | 4.95625 | 7950 ft | 290 kts | 92° |
| 2026-05-06 20:11 | 43.20158 | 4.98440 | 7579 ft | 289 kts | 92° |
| 2026-05-06 20:11 | 43.20015 | 5.01389 | 7037 ft | 285 kts | 92° |
| 2026-05-06 20:11 | 43.19883 | 5.04068 | 6490 ft | 281 kts | 92° |
| 2026-05-06 20:12 | 43.19747 | 5.06739 | 5918 ft | 279 kts | 92° |
| 2026-05-06 20:12 | 43.19610 | 5.09344 | 5343 ft | 278 kts | 92° |
| 2026-05-06 20:12 | 43.19475 | 5.11941 | 4752 ft | 276 kts | 92° |
| 2026-05-06 20:12 | 43.19346 | 5.14544 | 4151 ft | 275 kts | 92° |
| 2026-05-06 20:13 | 43.19217 | 5.17189 | 3543 ft | 273 kts | 92° |
| 2026-05-06 20:13 | 43.19266 | 5.19773 | 3063 ft | 270 kts | 72° |
| 2026-05-06 20:13 | 43.20250 | 5.21919 | 2986 ft | 265 kts | 40° |
| 2026-05-06 20:13 | 43.21697 | 5.23549 | 2986 ft | 264 kts | 34° |
| 2026-05-06 20:14 | 43.23142 | 5.25092 | 2983 ft | 264 kts | 36° |
| 2026-05-06 20:14 | 43.24532 | 5.26685 | 2983 ft | 264 kts | 38° |
| 2026-05-06 20:14 | 43.25908 | 5.28366 | 2968 ft | 251 kts | 39° |
| 2026-05-06 20:14 | 43.27216 | 5.30026 | 2960 ft | 232 kts | 40° |
| 2026-05-06 20:15 | 43.28437 | 5.31598 | 3029 ft | 214 kts | 39° |
| 2026-05-06 20:15 | 43.29633 | 5.32747 | 2988 ft | 189 kts | 15° |
| 2026-05-06 20:15 | 43.30896 | 5.32937 | 2985 ft | 161 kts | 355° |
| 2026-05-06 20:15 | 43.32040 | 5.32887 | 2953 ft | 146 kts | 353° |
| 2026-05-06 20:16 | 43.33123 | 5.32824 | 2962 ft | 143 kts | 353° |
| 2026-05-06 20:16 | 43.34140 | 5.32773 | 2973 ft | 142 kts | 353° |
| 2026-05-06 20:16 | 43.35151 | 5.32736 | 2980 ft | 142 kts | 352° |
| 2026-05-06 20:16 | 43.36062 | 5.32275 | 2963 ft | 140 kts | 320° |
| 2026-05-06 20:17 | 43.36788 | 5.31364 | 2787 ft | 142 kts | 311° |
| 2026-05-06 20:17 | 43.37452 | 5.30395 | 2506 ft | 142 kts | 310° |
| 2026-05-06 20:17 | 43.38170 | 5.29341 | 2187 ft | 142 kts | 310° |
| 2026-05-06 20:17 | 43.38828 | 5.28394 | 1890 ft | 141 kts | 311° |
| 2026-05-06 20:18 | 43.39523 | 5.27405 | 1562 ft | 140 kts | 311° |
| 2026-05-06 20:18 | 43.40229 | 5.26404 | 1215 ft | 139 kts | 311° |
| 2026-05-06 20:18 | 43.40888 | 5.25464 | 899 ft | 138 kts | 311° |
| 2026-05-06 20:18 | 43.41560 | 5.24513 | 651 ft | 138 kts | 310° |
| 2026-05-06 20:19 | 43.42228 | 5.23551 | 406 ft | 138 kts | 311° |
| 2026-05-06 20:19 | 43.42909 | 5.22588 | 166 ft | 138 kts | 311° |
| 2026-05-06 20:19 | 43.43589 | 5.21621 | 33 ft | 127 kts | 311° |
| 2026-05-06 20:19 | 43.44124 | 5.20854 | 14 ft | 73 kts | 313° |
| 2026-05-06 20:20 | 43.44475 | 5.20353 | 10 ft | 56 kts | 314° |
| 2026-05-06 20:20 | 43.44638 | 5.20239 | 10 ft | 12 kts | 33° |
| 2026-05-06 20:20 | 43.44672 | 5.20342 | 10 ft | 11 kts | 118° |
| 2026-05-06 20:20 | 43.44610 | 5.20433 | 10 ft | 12 kts | 136° |
| 2026-05-06 20:21 | 43.44546 | 5.20525 | 10 ft | 12 kts | 133° |
| 2026-05-06 20:21 | 43.44484 | 5.20613 | 11 ft | 12 kts | 135° |
| 2026-05-06 20:21 | 43.44417 | 5.20705 | 12 ft | 13 kts | 134° |
| 2026-05-06 20:21 | 43.44348 | 5.20806 | 13 ft | 14 kts | 133° |
| 2026-05-06 20:22 | 43.44283 | 5.20937 | 14 ft | 17 kts | 116° |
| 2026-05-06 20:22 | 43.44201 | 5.21087 | 15 ft | 21 kts | 134° |
| 2026-05-06 20:22 | 43.44086 | 5.21243 | 18 ft | 24 kts | 137° |
| 2026-05-06 20:22 | 43.43966 | 5.21418 | 21 ft | 19 kts | 133° |
| 2026-05-06 20:23 | 43.43927 | 5.21559 | 21 ft | 17 kts | 56° |
| 2026-05-06 20:23 | 43.43980 | 5.21661 | 20 ft | 12 kts | 84° |
| 2026-05-06 20:23 | 43.43942 | 5.21756 | 23 ft | 10 kts | 131° |
| 2026-05-06 20:23 | 43.43890 | 5.21830 | 25 ft | 11 kts | 135° |
| 2026-05-06 20:24 | 43.43824 | 5.21919 | 28 ft | 15 kts | 135° |
| 2026-05-06 20:24 | 43.43786 | 5.22028 | 31 ft | 13 kts | 65° |
| 2026-05-06 20:24 | 43.43847 | 5.22114 | 32 ft | 13 kts | 45° |
| 2026-05-06 20:24 | 43.43839 | 5.22205 | 35 ft | 8 kts | 155° |
| 2026-05-06 20:25 | 43.43804 | 5.22237 | 36 ft | 4 kts | 102° |
| 2026-05-06 20:25 | 43.43807 | 5.22267 | 37 ft | 1 kts | 77° |
| 2026-05-06 20:25 | 43.43809 | 5.22280 | 38 ft | 1 kts | 77° |
| 2026-05-06 20:25 | 43.43814 | 5.22304 | 39 ft | 2 kts | 74° |
| 2026-05-06 20:26 | 43.43815 | 5.22310 | 39 ft | 0 kts | 74° |